Time;durP1;ratioP1;P1;durP2;ratioP2;P2;SDS_P1;SDS_P2;PMS_P1;PMS_P2;Temp;Humidity;BMP_temperature;BMP_pressure;BME280_temperature;BME280_humidity;BME280_pressure;Samples;Min_cycle;Max_cycle;Signal;HPM_P1;HPM_P2
2022/11/23 00:00:28;;;;;;;;;;;4.70;89.30;;;;;;5044623;28;19925;-76
2022/11/23 00:02:54;;;;;;;;;;;4.70;89.30;;;;;;5025445;28;19928;-75
2022/11/23 00:05:19;;;;;;;;;;;4.70;89.30;;;;;;5025304;28;19924;-74
2022/11/23 00:07:45;;;;;;;;;;;4.60;89.30;;;;;;5022602;28;19921;-75
2022/11/23 00:10:10;;;;;;;;;;;4.60;89.40;;;;;;5005702;28;19917;-75
2022/11/23 00:12:36;;;;;;;;;;;4.60;89.30;;;;;;5042123;28;19916;-76
2022/11/23 00:15:01;;;;;;;;;;;4.50;89.30;;;;;;5022926;28;20289;-75
2022/11/23 00:17:27;;;;;;;;;;;4.50;89.30;;;;;;5024175;28;19917;-76
2022/11/23 00:19:52;;;;;;;;;;;4.50;89.40;;;;;;5022464;28;19936;-74
2022/11/23 00:22:17;;;;;;;;;;;4.50;89.40;;;;;;5022722;28;19920;-76
2022/11/23 00:24:43;;;;;;;;;;;4.50;89.80;;;;;;5025736;28;20401;-75
2022/11/23 00:27:08;;;;;;;;;;;4.40;89.50;;;;;;5009634;28;19980;-74
2022/11/23 00:29:34;;;;;;;;;;;4.40;89.50;;;;;;4994783;28;19923;-75
2022/11/23 00:31:59;;;;;;;;;;;4.40;89.50;;;;;;5013736;28;19933;-75
2022/11/23 00:34:25;;;;;;;;;;;4.30;89.50;;;;;;5043777;28;20450;-75
2022/11/23 00:36:50;;;;;;;;;;;4.30;89.50;;;;;;5035575;28;19928;-76
2022/11/23 00:39:16;;;;;;;;;;;4.30;89.50;;;;;;5037725;28;19967;-76
2022/11/23 00:41:41;;;;;;;;;;;4.30;89.60;;;;;;5040937;28;19956;-74
2022/11/23 00:44:07;;;;;;;;;;;4.30;89.60;;;;;;5032753;28;19959;-76
2022/11/23 00:46:32;;;;;;;;;;;4.30;89.60;;;;;;5045322;28;20390;-76
2022/11/23 00:48:59;;;;;;;;;;;4.30;89.60;;;;;;5040315;28;19920;-76
2022/11/23 00:51:28;;;;;;;;;;;4.20;89.60;;;;;;5037147;28;20378;-77
2022/11/23 00:53:53;;;;;;;;;;;4.20;89.60;;;;;;5023861;28;19920;-77
2022/11/23 00:56:19;;;;;;;;;;;4.20;89.60;;;;;;5035764;28;19924;-76
2022/11/23 00:58:51;;;;;;;;;;;4.20;89.60;;;;;;5037060;28;19927;-75
2022/11/23 01:01:17;;;;;;;;;;;4.10;89.60;;;;;;5035191;28;19987;-75
2022/11/23 01:03:43;;;;;;;;;;;4.10;89.60;;;;;;5045477;28;19921;-75
2022/11/23 01:06:12;;;;;;;;;;;4.00;89.50;;;;;;5039853;28;19932;-74
2022/11/23 01:08:38;;;;;;;;;;;4.00;89.50;;;;;;5039343;28;19927;-75
2022/11/23 01:11:04;;;;;;;;;;;3.90;89.50;;;;;;5038765;28;19921;-76
2022/11/23 01:13:30;;;;;;;;;;;3.90;89.60;;;;;;5017034;28;19920;-76
2022/11/23 01:15:55;;;;;;;;;;;3.90;89.60;;;;;;5037462;28;20027;-78
2022/11/23 01:18:21;;;;;;;;;;;3.80;89.60;;;;;;5037659;28;19917;-75
2022/11/23 01:20:46;;;;;;;;;;;3.90;89.70;;;;;;5036463;28;20503;-76
2022/11/23 01:23:12;;;;;;;;;;;3.90;89.80;;;;;;5042715;28;20007;-76
2022/11/23 01:25:37;;;;;;;;;;;3.80;89.80;;;;;;5041703;28;19917;-75
2022/11/23 01:28:03;;;;;;;;;;;3.80;89.80;;;;;;5039073;28;19917;-75
2022/11/23 01:30:28;;;;;;;;;;;3.80;89.90;;;;;;5037555;28;20846;-76
2022/11/23 01:32:53;;;;;;;;;;;3.80;89.90;;;;;;5043455;28;19936;-76
2022/11/23 01:35:19;;;;;;;;;;;3.80;89.90;;;;;;5020332;28;19942;-76
2022/11/23 01:37:44;;;;;;;;;;;3.80;90.00;;;;;;5027389;28;19921;-76
2022/11/23 01:40:10;;;;;;;;;;;3.70;89.80;;;;;;5019792;28;19917;-76
2022/11/23 01:42:45;;;;;;;;;;;3.70;89.80;;;;;;5029115;28;19920;-75
2022/11/23 01:45:26;;;;;;;;;;;3.70;89.70;;;;;;5022901;28;19931;-75
2022/11/23 01:47:51;;;;;;;;;;;3.60;89.70;;;;;;5038151;28;19943;-75
2022/11/23 01:50:17;;;;;;;;;;;3.50;89.70;;;;;;5010266;28;19936;-75
2022/11/23 01:52:42;;;;;;;;;;;3.50;89.80;;;;;;5023946;28;19917;-76
2022/11/23 01:55:08;;;;;;;;;;;3.50;89.80;;;;;;5022421;28;19975;-75
2022/11/23 01:57:35;;;;;;;;;;;3.50;89.80;;;;;;5012192;28;20012;-76
2022/11/23 02:00:00;;;;;;;;;;;3.40;89.70;;;;;;4998453;28;19918;-76
2022/11/23 02:02:26;;;;;;;;;;;3.40;89.90;;;;;;5003974;28;19928;-76
2022/11/23 02:04:51;;;;;;;;;;;3.40;90.00;;;;;;5010281;28;20320;-75
2022/11/23 02:07:17;;;;;;;;;;;3.30;89.90;;;;;;5022044;28;19925;-76
2022/11/23 02:09:42;;;;;;;;;;;3.40;90.00;;;;;;5019680;28;19924;-75
2022/11/23 02:12:09;;;;;;;;;;;3.30;90.00;;;;;;5012197;28;20134;-76
2022/11/23 02:14:35;;;;;;;;;;;3.30;90.00;;;;;;5009484;28;19923;-75
2022/11/23 02:17:00;;;;;;;;;;;3.30;90.00;;;;;;4995517;28;19926;-76
2022/11/23 02:19:46;;;;;;;;;;;3.30;90.00;;;;;;5018352;28;19970;-75
2022/11/23 02:22:32;;;;;;;;;;;3.30;90.00;;;;;;5038697;28;19935;-75
2022/11/23 02:24:57;;;;;;;;;;;3.20;90.00;;;;;;5026451;28;19927;-75
2022/11/23 02:27:23;;;;;;;;;;;3.20;90.00;;;;;;5021956;28;19916;-76
2022/11/23 02:29:48;;;;;;;;;;;3.20;90.00;;;;;;5017677;28;19921;-76
2022/11/23 02:32:18;;;;;;;;;;;3.20;90.10;;;;;;5002568;28;20347;-75
2022/11/23 02:34:43;;;;;;;;;;;3.20;90.00;;;;;;5013183;28;19917;-76
2022/11/23 02:37:08;;;;;;;;;;;3.30;90.10;;;;;;5010873;28;19951;-75
2022/11/23 02:39:35;;;;;;;;;;;3.30;90.10;;;;;;5040619;28;20370;-75
2022/11/23 02:42:01;;;;;;;;;;;3.30;90.10;;;;;;5021334;28;19946;-76
2022/11/23 02:44:26;;;;;;;;;;;3.30;90.10;;;;;;5037895;28;20000;-76
2022/11/23 02:46:52;;;;;;;;;;;3.30;90.10;;;;;;5040495;28;19925;-75
2022/11/23 02:49:17;;;;;;;;;;;3.30;90.10;;;;;;5036451;28;19917;-76
2022/11/23 02:51:42;;;;;;;;;;;3.30;90.10;;;;;;5038545;28;19917;-75
2022/11/23 02:54:08;;;;;;;;;;;3.30;90.10;;;;;;5024307;28;20435;-75
2022/11/23 02:56:33;;;;;;;;;;;3.30;90.10;;;;;;5023285;28;19917;-76
2022/11/23 02:58:59;;;;;;;;;;;3.30;90.10;;;;;;4999772;28;20483;-76
2022/11/23 03:01:24;;;;;;;;;;;3.30;90.10;;;;;;5038510;28;19928;-75
2022/11/23 03:03:50;;;;;;;;;;;3.30;90.10;;;;;;5005309;28;20420;-76
2022/11/23 03:06:15;;;;;;;;;;;3.40;90.10;;;;;;5037446;28;19917;-76
2022/11/23 03:08:41;;;;;;;;;;;3.40;90.10;;;;;;5038132;28;19995;-76
2022/11/23 03:11:06;;;;;;;;;;;3.40;90.20;;;;;;5039397;28;20324;-75
2022/11/23 03:13:32;;;;;;;;;;;3.40;90.10;;;;;;5023709;28;19970;-76
2022/11/23 03:15:57;;;;;;;;;;;3.40;90.10;;;;;;5035019;28;19921;-75
2022/11/23 03:18:23;;;;;;;;;;;3.40;90.10;;;;;;5037407;28;19929;-76
2022/11/23 03:20:48;;;;;;;;;;;3.40;90.10;;;;;;5035367;28;20444;-74
2022/11/23 03:23:13;;;;;;;;;;;3.40;90.10;;;;;;5038361;28;19928;-76
2022/11/23 03:25:39;;;;;;;;;;;3.50;90.10;;;;;;5037114;28;19924;-74
2022/11/23 03:28:04;;;;;;;;;;;3.50;90.10;;;;;;5038921;28;19972;-76
2022/11/23 03:30:30;;;;;;;;;;;3.50;90.20;;;;;;5035859;28;20606;-76
2022/11/23 03:32:56;;;;;;;;;;;3.60;90.20;;;;;;5038834;28;19921;-76
2022/11/23 03:35:21;;;;;;;;;;;3.60;90.20;;;;;;5022804;28;19925;-76
2022/11/23 03:37:47;;;;;;;;;;;3.70;90.20;;;;;;5034221;28;19920;-76
2022/11/23 03:40:12;;;;;;;;;;;3.70;90.10;;;;;;5037711;28;19924;-76
2022/11/23 03:42:40;;;;;;;;;;;3.70;90.10;;;;;;5026983;28;20280;-76
2022/11/23 03:45:07;;;;;;;;;;;3.70;90.10;;;;;;5035793;28;20367;-76
2022/11/23 03:47:32;;;;;;;;;;;3.70;90.10;;;;;;5029172;28;19996;-76
2022/11/23 03:49:58;;;;;;;;;;;3.70;90.10;;;;;;5041099;28;19920;-76
2022/11/23 03:52:23;;;;;;;;;;;3.80;90.10;;;;;;5039605;28;19917;-76
2022/11/23 03:54:48;;;;;;;;;;;3.80;90.10;;;;;;5037082;28;20389;-76
2022/11/23 03:57:14;;;;;;;;;;;3.80;90.10;;;;;;5017176;28;19929;-76
2022/11/23 03:59:39;;;;;;;;;;;3.80;90.10;;;;;;5024272;28;19921;-75
2022/11/23 04:02:06;;;;;;;;;;;3.80;90.10;;;;;;5040825;28;19920;-75
2022/11/23 04:04:32;;;;;;;;;;;3.90;90.10;;;;;;5026875;28;20615;-76
2022/11/23 04:06:57;;;;;;;;;;;3.90;90.10;;;;;;5038736;28;19925;-75
2022/11/23 04:09:23;;;;;;;;;;;3.90;90.10;;;;;;5027996;28;20008;-75
2022/11/23 04:11:48;;;;;;;;;;;3.90;90.10;;;;;;5035232;28;19917;-76
2022/11/23 04:14:14;;;;;;;;;;;3.90;90.10;;;;;;5035342;28;20035;-76
2022/11/23 04:16:39;;;;;;;;;;;3.90;90.10;;;;;;5041558;28;20475;-75
2022/11/23 04:19:05;;;;;;;;;;;3.90;90.10;;;;;;5034002;28;19921;-76
2022/11/23 04:21:30;;;;;;;;;;;3.90;90.10;;;;;;5041558;28;19928;-76
2022/11/23 04:23:56;;;;;;;;;;;3.90;90.10;;;;;;5042412;28;19988;-77
2022/11/23 04:26:21;;;;;;;;;;;3.90;90.10;;;;;;5036946;28;19963;-76
2022/11/23 04:28:47;;;;;;;;;;;3.90;90.10;;;;;;5030462;28;20651;-76
2022/11/23 04:31:12;;;;;;;;;;;4.00;90.10;;;;;;5034080;28;19921;-75
2022/11/23 04:33:37;;;;;;;;;;;4.00;90.10;;;;;;5036696;28;19956;-76
2022/11/23 04:36:03;;;;;;;;;;;4.00;90.10;;;;;;5033759;28;19970;-77
2022/11/23 04:38:29;;;;;;;;;;;4.00;90.10;;;;;;5040743;28;19925;-77
2022/11/23 04:40:54;;;;;;;;;;;4.00;90.10;;;;;;5031643;28;19977;-76
2022/11/23 04:43:20;;;;;;;;;;;4.00;90.10;;;;;;5030257;28;19921;-75
2022/11/23 04:45:45;;;;;;;;;;;4.00;90.10;;;;;;5025021;28;20156;-77
2022/11/23 04:48:11;;;;;;;;;;;4.10;90.10;;;;;;5038510;28;21481;-76
2022/11/23 04:50:36;;;;;;;;;;;4.10;90.10;;;;;;5039673;28;19956;-75
2022/11/23 04:53:02;;;;;;;;;;;4.10;90.10;;;;;;5037345;28;19925;-76
2022/11/23 04:55:28;;;;;;;;;;;4.10;90.10;;;;;;5038537;28;19970;-76
2022/11/23 04:57:53;;;;;;;;;;;4.20;90.10;;;;;;5037268;28;19923;-76
2022/11/23 05:00:19;;;;;;;;;;;4.20;90.10;;;;;;5040477;28;19940;-75
2022/11/23 05:02:44;;;;;;;;;;;4.20;90.10;;;;;;5041423;28;19925;-75
2022/11/23 05:05:10;;;;;;;;;;;4.20;90.10;;;;;;5041364;28;20624;-76
2022/11/23 05:07:35;;;;;;;;;;;4.20;90.10;;;;;;5041006;28;19921;-76
2022/11/23 05:10:01;;;;;;;;;;;4.30;90.10;;;;;;5047317;28;19925;-76
2022/11/23 05:12:27;;;;;;;;;;;4.30;90.10;;;;;;5044593;28;19912;-75
2022/11/23 05:14:52;;;;;;;;;;;4.30;90.10;;;;;;5043177;28;19984;-75
2022/11/23 05:17:18;;;;;;;;;;;4.30;90.10;;;;;;5045145;28;19943;-75
2022/11/23 05:19:44;;;;;;;;;;;4.30;90.10;;;;;;5046997;28;20045;-75
2022/11/23 05:22:09;;;;;;;;;;;4.30;90.10;;;;;;5040680;28;20314;-74
2022/11/23 05:24:35;;;;;;;;;;;4.30;90.00;;;;;;5045733;28;20055;-75
2022/11/23 05:27:00;;;;;;;;;;;4.30;90.00;;;;;;5039042;28;19916;-75
2022/11/23 05:29:26;;;;;;;;;;;4.30;90.00;;;;;;5042414;28;19917;-75
2022/11/23 05:31:51;;;;;;;;;;;4.40;90.10;;;;;;5024586;28;20337;-74
2022/11/23 05:34:17;;;;;;;;;;;4.40;90.40;;;;;;5039905;28;19931;-74
2022/11/23 05:36:42;;;;;;;;;;;4.40;90.00;;;;;;5041535;28;19921;-75
2022/11/23 05:39:07;;;;;;;;;;;4.40;90.00;;;;;;5038763;28;20381;-75
2022/11/23 05:41:33;;;;;;;;;;;4.40;90.00;;;;;;5038744;28;19936;-76
2022/11/23 05:43:58;;;;;;;;;;;4.40;90.00;;;;;;5042975;28;20059;-74
2022/11/23 05:46:24;;;;;;;;;;;4.40;90.00;;;;;;5039790;28;19948;-76
2022/11/23 05:48:49;;;;;;;;;;;4.50;90.00;;;;;;5037451;28;19921;-76
2022/11/23 05:51:15;;;;;;;;;;;4.40;90.00;;;;;;5040356;28;20427;-74
2022/11/23 05:53:40;;;;;;;;;;;4.40;90.00;;;;;;5026619;28;20055;-74
2022/11/23 05:56:06;;;;;;;;;;;4.40;90.00;;;;;;5041448;28;19924;-76
2022/11/23 05:58:31;;;;;;;;;;;4.40;90.00;;;;;;5040916;28;19917;-75
2022/11/23 06:00:57;;;;;;;;;;;4.50;90.00;;;;;;5039996;28;19925;-76
2022/11/23 06:03:23;;;;;;;;;;;4.50;90.00;;;;;;5054227;28;19924;-74
2022/11/23 06:05:48;;;;;;;;;;;4.50;90.00;;;;;;5039078;28;20292;-74
2022/11/23 06:08:14;;;;;;;;;;;4.50;90.00;;;;;;5041641;28;19928;-74
2022/11/23 06:10:39;;;;;;;;;;;4.50;90.00;;;;;;5041163;28;19921;-74
2022/11/23 06:13:05;;;;;;;;;;;4.50;90.00;;;;;;5038608;28;20015;-76
2022/11/23 06:15:30;;;;;;;;;;;4.50;90.00;;;;;;5037998;28;20397;-75
2022/11/23 06:18:01;;;;;;;;;;;4.50;90.00;;;;;;5033992;28;19921;-75
2022/11/23 06:20:29;;;;;;;;;;;4.50;90.00;;;;;;5033410;28;19917;-75
2022/11/23 06:22:55;;;;;;;;;;;4.50;90.00;;;;;;5038700;28;19975;-75
2022/11/23 06:25:21;;;;;;;;;;;4.50;90.00;;;;;;5040034;28;19917;-75
2022/11/23 06:27:55;;;;;;;;;;;4.50;90.00;;;;;;5032792;28;19963;-75
2022/11/23 06:30:21;;;;;;;;;;;4.50;90.00;;;;;;5034309;28;19917;-75
2022/11/23 06:32:46;;;;;;;;;;;4.50;90.00;;;;;;5037126;28;19979;-74
2022/11/23 06:35:12;;;;;;;;;;;4.50;90.00;;;;;;5037283;28;19986;-75
2022/11/23 06:37:37;;;;;;;;;;;4.50;90.00;;;;;;5034803;28;20305;-75
2022/11/23 06:40:03;;;;;;;;;;;4.50;90.00;;;;;;5030384;28;19960;-75
2022/11/23 06:42:28;;;;;;;;;;;4.50;90.00;;;;;;5042864;28;20012;-75
2022/11/23 06:44:54;;;;;;;;;;;4.50;90.00;;;;;;5038315;28;19938;-75
2022/11/23 06:47:19;;;;;;;;;;;4.60;90.00;;;;;;5045695;28;19921;-76
2022/11/23 06:49:45;;;;;;;;;;;4.60;90.00;;;;;;5043572;28;20436;-75
2022/11/23 06:52:10;;;;;;;;;;;4.60;90.00;;;;;;5037437;28;19969;-76
2022/11/23 06:54:36;;;;;;;;;;;4.60;90.00;;;;;;5043199;28;19923;-76
2022/11/23 06:57:01;;;;;;;;;;;4.60;90.00;;;;;;5038582;28;21002;-76
2022/11/23 06:59:27;;;;;;;;;;;4.60;90.00;;;;;;5037053;28;19924;-75
2022/11/23 07:01:52;;;;;;;;;;;4.60;90.00;;;;;;5036473;28;20490;-74
2022/11/23 07:04:18;;;;;;;;;;;4.60;90.00;;;;;;5039908;28;19916;-76
2022/11/23 07:06:43;;;;;;;;;;;4.60;90.00;;;;;;5042688;28;20564;-75
2022/11/23 07:09:09;;;;;;;;;;;4.60;90.30;;;;;;5041313;28;19917;-74
2022/11/23 07:11:34;;;;;;;;;;;4.60;90.00;;;;;;5040579;28;19929;-75
2022/11/23 07:14:00;;;;;;;;;;;4.60;90.00;;;;;;5045784;28;19921;-75
2022/11/23 07:16:25;;;;;;;;;;;4.60;90.00;;;;;;5039024;28;19921;-76
2022/11/23 07:18:50;;;;;;;;;;;4.60;90.00;;;;;;5039698;28;19924;-76
2022/11/23 07:21:16;;;;;;;;;;;4.70;90.00;;;;;;5039946;28;20415;-75
2022/11/23 07:23:42;;;;;;;;;;;4.70;90.00;;;;;;5044686;28;19928;-74
2022/11/23 07:26:08;;;;;;;;;;;4.70;90.00;;;;;;5043733;28;19924;-76
2022/11/23 07:28:33;;;;;;;;;;;4.70;90.00;;;;;;5040267;28;19918;-75
2022/11/23 07:30:58;;;;;;;;;;;4.70;90.00;;;;;;5038527;28;19957;-75
2022/11/23 07:33:24;;;;;;;;;;;4.70;90.00;;;;;;5037723;28;19933;-75
2022/11/23 07:35:49;;;;;;;;;;;4.70;90.00;;;;;;5040863;28;19952;-76
2022/11/23 07:38:15;;;;;;;;;;;4.80;90.00;;;;;;5034314;28;19921;-75
2022/11/23 07:40:40;;;;;;;;;;;4.80;90.00;;;;;;5041362;28;19925;-76
2022/11/23 07:43:06;;;;;;;;;;;4.80;90.00;;;;;;5041370;28;19928;-76
2022/11/23 07:45:31;;;;;;;;;;;4.80;90.00;;;;;;5036964;28;19975;-75
2022/11/23 07:48:04;;;;;;;;;;;4.80;90.00;;;;;;5034089;28;19924;-75
2022/11/23 07:50:29;;;;;;;;;;;4.90;90.00;;;;;;5026274;28;19921;-75
2022/11/23 07:52:55;;;;;;;;;;;4.90;90.00;;;;;;5044722;28;19967;-76
2022/11/23 07:55:20;;;;;;;;;;;4.90;90.00;;;;;;5063159;28;20182;-76
2022/11/23 07:57:46;;;;;;;;;;;4.90;90.00;;;;;;5040638;28;19928;-74
2022/11/23 08:00:11;;;;;;;;;;;4.90;90.00;;;;;;5045099;28;19933;-75
2022/11/23 08:02:37;;;;;;;;;;;4.90;90.00;;;;;;5043427;28;19928;-76
2022/11/23 08:05:03;;;;;;;;;;;4.90;90.00;;;;;;5025520;28;19917;-74
2022/11/23 08:07:28;;;;;;;;;;;4.90;90.00;;;;;;5040448;28;19925;-76
2022/11/23 08:09:54;;;;;;;;;;;5.00;90.00;;;;;;5036581;28;19925;-75
2022/11/23 08:12:20;;;;;;;;;;;5.00;90.00;;;;;;5041695;28;19979;-76
2022/11/23 08:14:45;;;;;;;;;;;5.10;90.00;;;;;;5038978;28;19971;-76
2022/11/23 08:17:11;;;;;;;;;;;5.10;90.00;;;;;;5044504;28;19925;-74
2022/11/23 08:19:37;;;;;;;;;;;5.10;90.00;;;;;;5047089;28;19994;-75
2022/11/23 08:22:02;;;;;;;;;;;5.10;90.00;;;;;;5041299;28;20008;-77
2022/11/23 08:24:28;;;;;;;;;;;5.10;89.90;;;;;;5041402;28;20010;-76
2022/11/23 08:26:53;;;;;;;;;;;5.20;90.00;;;;;;5040101;28;19917;-75
2022/11/23 08:29:19;;;;;;;;;;;5.20;90.00;;;;;;5040400;28;19987;-76
2022/11/23 08:31:44;;;;;;;;;;;5.20;90.00;;;;;;5043452;28;19932;-75
2022/11/23 08:34:10;;;;;;;;;;;5.30;90.00;;;;;;5046902;28;19932;-74
2022/11/23 08:36:36;;;;;;;;;;;5.30;90.00;;;;;;5013353;28;19925;-76
2022/11/23 08:39:01;;;;;;;;;;;5.30;90.00;;;;;;5028646;28;20062;-76
2022/11/23 08:41:27;;;;;;;;;;;5.40;90.00;;;;;;5022927;28;20532;-74
2022/11/23 08:43:52;;;;;;;;;;;5.40;90.00;;;;;;5022593;28;19944;-75
2022/11/23 08:46:18;;;;;;;;;;;5.50;90.00;;;;;;5043396;28;19963;-76
2022/11/23 08:48:43;;;;;;;;;;;5.50;89.90;;;;;;5022615;28;19921;-75
2022/11/23 08:51:09;;;;;;;;;;;5.60;89.90;;;;;;5023485;28;20662;-74
2022/11/23 08:53:35;;;;;;;;;;;5.60;89.90;;;;;;5021797;28;19921;-75
2022/11/23 08:56:01;;;;;;;;;;;5.60;89.90;;;;;;5027823;28;19921;-75
2022/11/23 08:58:26;;;;;;;;;;;5.70;89.90;;;;;;5023616;28;20063;-77
2022/11/23 09:00:51;;;;;;;;;;;5.70;89.90;;;;;;5021484;28;19917;-75
2022/11/23 09:03:17;;;;;;;;;;;5.80;89.90;;;;;;5041448;28;20734;-74
2022/11/23 09:05:42;;;;;;;;;;;5.80;89.80;;;;;;5040843;28;19924;-76
2022/11/23 09:08:08;;;;;;;;;;;5.80;89.80;;;;;;5025274;28;19976;-76
2022/11/23 09:10:34;;;;;;;;;;;5.80;89.80;;;;;;5021144;28;20374;-75
2022/11/23 09:12:59;;;;;;;;;;;5.90;89.80;;;;;;5025063;28;20029;-75
2022/11/23 09:15:24;;;;;;;;;;;5.90;89.80;;;;;;5044134;28;19999;-74
2022/11/23 09:17:50;;;;;;;;;;;6.00;89.90;;;;;;5045343;28;19927;-75
2022/11/23 09:20:16;;;;;;;;;;;6.00;89.80;;;;;;5044826;28;19924;-75
2022/11/23 09:22:42;;;;;;;;;;;6.10;89.70;;;;;;5025572;28;20737;-77
2022/11/23 09:25:09;;;;;;;;;;;6.10;89.70;;;;;;5023449;28;20028;-76
2022/11/23 09:27:34;;;;;;;;;;;6.10;89.70;;;;;;5026673;28;19924;-76
2022/11/23 09:30:00;;;;;;;;;;;6.20;89.70;;;;;;5042331;28;20374;-76
2022/11/23 09:32:25;;;;;;;;;;;6.20;89.60;;;;;;5027880;28;19975;-76
2022/11/23 09:34:51;;;;;;;;;;;6.20;89.60;;;;;;5044482;28;19983;-75
2022/11/23 09:37:16;;;;;;;;;;;6.30;89.60;;;;;;5044195;28;19921;-75
2022/11/23 09:39:42;;;;;;;;;;;6.30;89.60;;;;;;5039599;28;20603;-75
2022/11/23 09:42:26;;;;;;;;;;;6.40;89.60;;;;;;5040520;28;19968;-76
2022/11/23 09:44:58;;;;;;;;;;;6.50;89.60;;;;;;5042853;28;19928;-75
2022/11/23 09:47:36;;;;;;;;;;;6.50;89.50;;;;;;5042374;28;20239;-76
2022/11/23 09:50:07;;;;;;;;;;;6.50;89.50;;;;;;5041194;28;19917;-76
2022/11/23 09:52:40;;;;;;;;;;;6.60;89.50;;;;;;5040894;28;19932;-75
2022/11/23 09:55:10;;;;;;;;;;;6.60;89.40;;;;;;5040193;28;20443;-75
2022/11/23 09:57:36;;;;;;;;;;;6.60;89.40;;;;;;5040219;28;19956;-76
2022/11/23 10:00:05;;;;;;;;;;;6.70;89.40;;;;;;5039471;28;19925;-75
2022/11/23 10:02:31;;;;;;;;;;;6.70;89.40;;;;;;5039457;28;19929;-76
2022/11/23 10:04:57;;;;;;;;;;;6.70;89.30;;;;;;5039110;28;19924;-76
2022/11/23 10:07:32;;;;;;;;;;;6.80;89.30;;;;;;5027740;28;20008;-76
2022/11/23 10:10:16;;;;;;;;;;;6.80;89.30;;;;;;5043188;28;19939;-75
2022/11/23 10:12:45;;;;;;;;;;;6.90;89.40;;;;;;5038532;28;20365;-75
2022/11/23 10:15:12;;;;;;;;;;;6.90;89.30;;;;;;5037977;28;19932;-76
2022/11/23 10:17:57;;;;;;;;;;;6.90;89.20;;;;;;5040116;28;19920;-76
2022/11/23 10:20:31;;;;;;;;;;;7.00;89.20;;;;;;5038089;28;19920;-76
2022/11/23 10:22:57;;;;;;;;;;;7.00;89.20;;;;;;5038910;28;19929;-76
2022/11/23 10:25:23;;;;;;;;;;;7.00;89.20;;;;;;5038991;28;19970;-76
2022/11/23 10:27:49;;;;;;;;;;;7.10;89.10;;;;;;5039179;28;19917;-74
2022/11/23 10:30:15;;;;;;;;;;;7.10;89.10;;;;;;5040018;28;20512;-75
2022/11/23 10:32:41;;;;;;;;;;;7.10;89.10;;;;;;5035518;28;19936;-76
2022/11/23 10:35:17;;;;;;;;;;;7.20;89.10;;;;;;5037978;28;19933;-76
2022/11/23 10:37:42;;;;;;;;;;;7.20;89.00;;;;;;5042400;28;19928;-75
2022/11/23 10:40:17;;;;;;;;;;;7.20;89.00;;;;;;5037968;28;19921;-76
2022/11/23 10:42:44;;;;;;;;;;;7.30;89.10;;;;;;5024003;28;20308;-75
2022/11/23 10:45:19;;;;;;;;;;;7.30;89.00;;;;;;5018745;28;19917;-74
2022/11/23 10:47:49;;;;;;;;;;;7.40;89.10;;;;;;5036187;28;19921;-76
2022/11/23 10:50:19;;;;;;;;;;;7.40;89.10;;;;;;5024616;28;20421;-75
2022/11/23 10:52:49;;;;;;;;;;;7.50;89.00;;;;;;5038269;28;19921;-75
2022/11/23 10:55:14;;;;;;;;;;;7.50;89.00;;;;;;5035003;28;19928;-76
2022/11/23 10:57:41;;;;;;;;;;;7.60;88.90;;;;;;5040161;28;19921;-74
2022/11/23 11:00:06;;;;;;;;;;;7.70;89.00;;;;;;5040613;28;19995;-75
2022/11/23 11:02:42;;;;;;;;;;;7.80;88.90;;;;;;5039361;28;20415;-77
2022/11/23 11:05:20;;;;;;;;;;;7.80;88.80;;;;;;5041199;28;19925;-75
2022/11/23 11:07:46;;;;;;;;;;;7.90;88.80;;;;;;5025745;28;20240;-76
2022/11/23 11:10:31;;;;;;;;;;;8.00;88.80;;;;;;5017067;28;20380;-76
2022/11/23 11:12:57;;;;;;;;;;;8.10;88.80;;;;;;5037654;28;19916;-75
2022/11/23 11:15:22;;;;;;;;;;;8.10;88.70;;;;;;5035362;28;19963;-76
2022/11/23 11:17:55;;;;;;;;;;;8.30;88.90;;;;;;5036126;28;20381;-76
2022/11/23 11:20:30;;;;;;;;;;;8.50;89.00;;;;;;5044097;28;19917;-76
2022/11/23 11:22:57;;;;;;;;;;;8.80;88.90;;;;;;5037522;28;19932;-77
2022/11/23 11:25:29;;;;;;;;;;;8.90;88.70;;;;;;5036397;28;19991;-76
2022/11/23 11:27:55;;;;;;;;;;;9.10;88.70;;;;;;5036017;28;19968;-75
2022/11/23 11:30:21;;;;;;;;;;;9.40;88.50;;;;;;5022309;28;20393;-76
2022/11/23 11:33:05;;;;;;;;;;;9.50;88.30;;;;;;5035947;28;19936;-77
2022/11/23 11:35:31;;;;;;;;;;;9.60;88.10;;;;;;5036748;28;19921;-76
2022/11/23 11:38:07;;;;;;;;;;;9.80;88.20;;;;;;5040076;28;19969;-76
2022/11/23 11:40:32;;;;;;;;;;;10.00;88.10;;;;;;5039178;28;19993;-75
2022/11/23 11:43:05;;;;;;;;;;;10.20;88.00;;;;;;5037839;28;20007;-75
2022/11/23 11:45:33;;;;;;;;;;;10.40;87.90;;;;;;5037025;28;19925;-75
2022/11/23 11:48:16;;;;;;;;;;;10.60;87.70;;;;;;5033771;28;19935;-77
2022/11/23 11:50:51;;;;;;;;;;;10.80;87.60;;;;;;5038138;28;19935;-77
2022/11/23 11:53:18;;;;;;;;;;;11.00;87.50;;;;;;5011076;28;19916;-75
2022/11/23 11:55:43;;;;;;;;;;;11.10;87.20;;;;;;5039438;28;20453;-76
2022/11/23 11:58:09;;;;;;;;;;;11.30;87.30;;;;;;5044414;28;19971;-74
2022/11/23 12:00:35;;;;;;;;;;;11.40;87.10;;;;;;5044874;28;20491;-76
2022/11/23 12:03:05;;;;;;;;;;;11.40;86.80;;;;;;5040677;28;20389;-76
2022/11/23 12:05:38;;;;;;;;;;;11.40;86.60;;;;;;5039520;28;19931;-75
2022/11/23 12:08:06;;;;;;;;;;;11.40;86.50;;;;;;5034725;28;19921;-77
2022/11/23 12:10:37;;;;;;;;;;;11.30;86.40;;;;;;5041639;28;19932;-76
2022/11/23 12:13:02;;;;;;;;;;;11.30;86.40;;;;;;5040729;28;19947;-76
2022/11/23 12:15:31;;;;;;;;;;;11.30;86.60;;;;;;5043970;28;21243;-76
2022/11/23 12:18:04;;;;;;;;;;;11.40;86.80;;;;;;5037189;28;20006;-77
2022/11/23 12:20:50;;;;;;;;;;;11.60;86.90;;;;;;5042572;28;19925;-76
2022/11/23 12:23:18;;;;;;;;;;;11.80;86.90;;;;;;5039632;28;19936;-76
2022/11/23 12:25:47;;;;;;;;;;;12.00;86.80;;;;;;5043607;28;19917;-75
2022/11/23 12:28:19;;;;;;;;;;;12.10;86.70;;;;;;5041042;28;19940;-75
2022/11/23 12:31:04;;;;;;;;;;;12.30;86.60;;;;;;5048432;28;20102;-77
2022/11/23 12:33:40;;;;;;;;;;;12.40;86.40;;;;;;5046246;28;19929;-77
2022/11/23 12:36:11;;;;;;;;;;;12.60;86.30;;;;;;5022505;28;19925;-76
2022/11/23 12:38:39;;;;;;;;;;;12.70;86.20;;;;;;5042875;28;19925;-76
2022/11/23 12:41:24;;;;;;;;;;;12.80;86.10;;;;;;5024887;28;19921;-76
2022/11/23 12:44:02;;;;;;;;;;;13.00;86.10;;;;;;5043219;28;19947;-76
2022/11/23 12:46:33;;;;;;;;;;;13.10;86.00;;;;;;5042770;28;19964;-77
2022/11/23 12:49:10;;;;;;;;;;;13.20;85.80;;;;;;5041784;28;19932;-77
2022/11/23 12:51:39;;;;;;;;;;;13.30;85.70;;;;;;5029418;28;19952;-76
2022/11/23 12:54:15;;;;;;;;;;;13.50;85.70;;;;;;5043289;28;20027;-77
2022/11/23 12:56:55;;;;;;;;;;;13.60;85.70;;;;;;5025298;28;20292;-76
2022/11/23 12:59:21;;;;;;;;;;;13.70;85.60;;;;;;5042542;28;19913;-77
2022/11/23 13:01:48;;;;;;;;;;;13.80;85.40;;;;;;5024214;28;19940;-75
2022/11/23 13:04:37;;;;;;;;;;;14.00;85.40;;;;;;5024954;28;19980;-77
2022/11/23 13:07:11;;;;;;;;;;;14.00;85.10;;;;;;5031438;28;20608;-75
2022/11/23 13:09:52;;;;;;;;;;;14.10;85.20;;;;;;5028658;28;19916;-75
2022/11/23 13:12:24;;;;;;;;;;;14.10;85.00;;;;;;5017092;28;19917;-76
2022/11/23 13:14:55;;;;;;;;;;;14.20;85.10;;;;;;5024046;28;20592;-76
2022/11/23 13:17:23;;;;;;;;;;;14.20;85.00;;;;;;5044353;28;19948;-75
2022/11/23 13:20:07;;;;;;;;;;;14.30;85.00;;;;;;5040797;28;20275;-75
2022/11/23 13:22:33;;;;;;;;;;;14.50;84.90;;;;;;5042640;28;19928;-76
2022/11/23 13:25:11;;;;;;;;;;;14.50;84.80;;;;;;5043266;28;19933;-76
2022/11/23 13:27:41;;;;;;;;;;;14.60;84.80;;;;;;5048310;28;20401;-75
2022/11/23 13:30:07;;;;;;;;;;;14.60;84.50;;;;;;5019569;28;19921;-75
2022/11/23 13:32:32;;;;;;;;;;;14.60;84.50;;;;;;5037582;28;20471;-77
2022/11/23 13:34:58;;;;;;;;;;;14.60;84.50;;;;;;5018624;28;19916;-77
2022/11/23 13:37:23;;;;;;;;;;;14.60;84.30;;;;;;5017685;28;19996;-75
2022/11/23 13:39:49;;;;;;;;;;;14.60;84.30;;;;;;5021769;28;19916;-75
2022/11/23 13:42:15;;;;;;;;;;;14.60;84.20;;;;;;5038868;28;19971;-75
2022/11/23 13:44:40;;;;;;;;;;;14.50;83.90;;;;;;5042723;28;19912;-75
2022/11/23 13:47:06;;;;;;;;;;;14.40;83.80;;;;;;5024840;28;19925;-76
2022/11/23 13:49:31;;;;;;;;;;;14.30;83.70;;;;;;5036993;28;19913;-75
2022/11/23 13:52:04;;;;;;;;;;;14.20;83.80;;;;;;5043208;28;19913;-77
2022/11/23 13:54:29;;;;;;;;;;;14.20;83.90;;;;;;5004555;28;19917;-77
2022/11/23 13:56:59;;;;;;;;;;;14.20;83.90;;;;;;5008398;28;19924;-76
2022/11/23 13:59:26;;;;;;;;;;;14.10;83.90;;;;;;5024606;28;19998;-76
2022/11/23 14:02:07;;;;;;;;;;;14.10;83.70;;;;;;5024169;28;19917;-75
2022/11/23 14:04:33;;;;;;;;;;;14.00;83.70;;;;;;5042342;28;20349;-76
2022/11/23 14:07:02;;;;;;;;;;;14.00;83.60;;;;;;5021660;28;19919;-76
2022/11/23 14:09:46;;;;;;;;;;;14.00;83.70;;;;;;5018638;28;19983;-75
2022/11/23 14:12:13;;;;;;;;;;;14.00;83.60;;;;;;5040954;28;20011;-76
2022/11/23 14:14:41;;;;;;;;;;;13.90;83.60;;;;;;5022299;28;19923;-77
2022/11/23 14:17:26;;;;;;;;;;;13.90;83.60;;;;;;5039199;28;20008;-76
2022/11/23 14:19:57;;;;;;;;;;;13.90;83.90;;;;;;5041615;28;19913;-76
2022/11/23 14:22:38;;;;;;;;;;;14.00;84.50;;;;;;5040705;28;19929;-75
2022/11/23 14:25:23;;;;;;;;;;;14.10;84.60;;;;;;5037905;28;20404;-75
2022/11/23 14:27:48;;;;;;;;;;;14.30;84.70;;;;;;5038947;28;19920;-75
2022/11/23 14:30:21;;;;;;;;;;;14.50;84.90;;;;;;5034819;28;20606;-76